Latest Weather Observations for Little Bay

IDN60801

Issued at 5:22 am EDT Friday 22 February 2019 (issued every 10 minutes, with the page automatically refreshed every 10 minutes)

About weather observations | Map of weather stations | Latest weather observations for NSW | Other Formats
Station Details ID: 066051 Name: LITTLE BAY (THE COAST GOLF CLUB) Lat: -33.98 Lon: 151.25 Height: 22.0 m
Data from the previous 72 hours. | See also: Recent months at Little Bay
Date/Time
EDT
Temp
°C
App
Temp
°C
Dew
Point
°C
Rel
Hum
%
Delta-T
°C
Wind Press
QNH
hPa
Press
MSL
hPa
Rain since
9am
mm
Dir  Spd
km/h
Gust
km/h
Spd
kts
Gust
kts
22/05:00am - - - - - SSE 19 30 10 16 - - -
22/04:30am - - - - - SSE 24 30 13 16 - - -
22/04:00am - - - - - SE 28 37 15 20 - - -
22/03:30am - - - - - SE 32 39 17 21 - - -
22/03:00am - - - - - SE 26 37 14 20 - - -
22/02:30am - - - - - SE 26 32 14 17 - - -
22/02:00am - - - - - SE 22 30 12 16 - - -
22/01:30am - - - - - SE 24 32 13 17 - - -
22/01:00am - - - - - SE 24 30 13 16 - - -
22/12:30am - - - - - SE 26 33 14 18 - - -
22/12:00am - - - - - SE 24 30 13 16 - - -
 
Date/Time
EDT
Temp
°C
App
Temp
°C
Dew
Point
°C
Rel
Hum
%
Delta-T
°C
Wind Press
QNH
hPa
Press
MSL
hPa
Rain since
9am
mm
Dir  Spd
km/h
Gust
km/h
Spd
kts
Gust
kts
21/11:30pm - - - - - SE 24 30 13 16 - - -
21/11:00pm - - - - - SE 24 30 13 16 - - -
21/10:30pm - - - - - SE 28 33 15 18 - - -
21/10:00pm - - - - - ESE 15 22 8 12 - - -
21/09:30pm - - - - - SW 19 24 10 13 - - -
21/09:00pm - - - - - SSW 20 32 11 17 - - -
21/08:30pm - - - - - SSW 20 30 11 16 - - -
21/08:00pm - - - - - SSW 22 33 12 18 - - -
21/07:30pm - - - - - SSW 22 30 12 16 - - -
21/07:00pm - - - - - SSW 19 30 10 16 - - -
21/06:30pm - - - - - SSW 15 20 8 11 - - -
21/06:00pm - - - - - SSW 22 32 12 17 - - -
21/05:30pm - - - - - SSW 17 28 9 15 - - -
21/05:00pm - - - - - SSW 20 30 11 16 - - -
21/04:30pm - - - - - SSW 22 32 12 17 - - -
21/04:00pm - - - - - SSW 24 33 13 18 - - -
21/03:30pm - - - - - SSW 20 28 11 15 - - -
21/03:00pm - - - - - SSW 20 30 11 16 - - -
21/02:30pm - - - - - SSW 26 35 14 19 - - -
21/02:00pm - - - - - SSW 24 30 13 16 - - -
21/01:30pm - - - - - SSW 22 33 12 18 - - -
21/01:00pm - - - - - SSW 24 33 13 18 - - -
21/12:30pm - - - - - S 24 30 13 16 - - -
21/12:00pm - - - - - SSW 24 33 13 18 - - -
21/11:30am - - - - - S 26 33 14 18 - - -
21/11:00am - - - - - SSW 24 33 13 18 - - -
21/10:30am - - - - - SSW 24 33 13 18 - - -
21/10:00am - - - - - SSW 24 33 13 18 - - -
21/09:30am - - - - - SSW 22 33 12 18 - - -
21/09:00am - - - - - SSW 22 33 12 18 - - -
21/08:30am - - - - - SSW 19 28 10 15 - - -
21/08:00am - - - - - S 15 24 8 13 - - -
21/07:30am - - - - - SSW 17 30 9 16 - - -
21/07:00am - - - - - SSW 19 26 10 14 - - -
21/06:30am - - - - - SSW 17 30 9 16 - - -
21/06:00am - - - - - SSE 13 19 7 10 - - -
21/05:30am - - - - - SE 13 17 7 9 - - -
21/05:00am - - - - - SE 17 22 9 12 - - -
21/04:30am - - - - - SE 17 20 9 11 - - -
21/04:00am - - - - - SE 20 24 11 13 - - -
21/03:30am - - - - - ESE 20 28 11 15 - - -
21/03:00am - - - - - ESE 26 37 14 20 - - -
21/02:30am - - - - - ESE 24 32 13 17 - - -
21/02:00am - - - - - ESE 30 37 16 20 - - -
21/01:30am - - - - - ESE 26 33 14 18 - - -
21/01:00am - - - - - SE 24 28 13 15 - - -
21/12:30am - - - - - SE 22 30 12 16 - - -
21/12:00am - - - - - SE 20 30 11 16 - - -
 
Date/Time
EDT
Temp
°C
App
Temp
°C
Dew
Point
°C
Rel
Hum
%
Delta-T
°C
Wind Press
QNH
hPa
Press
MSL
hPa
Rain since
9am
mm
Dir  Spd
km/h
Gust
km/h
Spd
kts
Gust
kts
20/11:30pm - - - - - ESE 20 26 11 14 - - -
20/11:00pm - - - - - ESE 17 22 9 12 - - -
20/10:30pm - - - - - ESE 19 24 10 13 - - -
20/10:00pm - - - - - ESE 20 30 11 16 - - -
20/09:30pm - - - - - ESE 22 28 12 15 - - -
20/09:00pm - - - - - ESE 20 28 11 15 - - -
20/08:30pm - - - - - ESE 19 28 10 15 - - -
20/08:00pm - - - - - ESE 20 28 11 15 - - -
20/07:30pm - - - - - SE 22 28 12 15 - - -
20/07:00pm - - - - - SE 24 32 13 17 - - -
20/06:30pm - - - - - SE 22 30 12 16 - - -
20/06:00pm - - - - - S 20 32 11 17 - - -
20/05:30pm - - - - - SSW 24 33 13 18 - - -
20/05:00pm - - - - - SSW 22 30 12 16 - - -
20/04:30pm - - - - - SSW 22 33 12 18 - - -
20/04:00pm - - - - - SSW 24 30 13 16 - - -
20/03:30pm - - - - - SSW 24 35 13 19 - - -
20/03:00pm - - - - - SSW 28 35 15 19 - - -
20/02:30pm - - - - - SSW 28 43 15 23 - - -
20/02:00pm - - - - - SSW 26 35 14 19 - - -
20/01:30pm - - - - - SSW 28 37 15 20 - - -
20/01:00pm - - - - - SSW 24 33 13 18 - - -
20/12:30pm - - - - - SSW 24 33 13 18 - - -
20/12:00pm - - - - - SSW 24 32 13 17 - - -
20/11:30am - - - - - SSW 24 35 13 19 - - -
20/11:00am - - - - - SSW 20 30 11 16 - - -
20/10:30am - - - - - SSW 22 28 12 15 - - -
20/10:00am - - - - - SSW 20 32 11 17 - - -
20/09:30am - - - - - SSW 20 32 11 17 - - -
20/09:00am - - - - - SSW 19 30 10 16 - - -
20/08:30am - - - - - SSW 17 26 9 14 - - -
20/08:00am - - - - - SSW 19 28 10 15 - - -
20/07:30am - - - - - SSW 20 28 11 15 - - -
20/07:00am - - - - - SSW 19 24 10 13 - - -
20/06:30am - - - - - SSW 19 28 10 15 - - -
20/06:00am - - - - - SSW 20 28 11 15 - - -
20/05:30am - - - - - SSW 20 30 11 16 - - -
20/05:00am - - - - - SSW 20 30 11 16 - - -
20/04:30am - - - - - SSW 22 32 12 17 - - -
20/04:00am - - - - - SSW 20 28 11 15 - - -
20/03:30am - - - - - SSW 20 28 11 15 - - -
20/03:00am - - - - - SSW 20 30 11 16 - - -
20/02:30am - - - - - SSW 20 30 11 16 - - -
20/02:00am - - - - - SSW 22 30 12 16 - - -
20/01:30am - - - - - SSW 20 30 11 16 - - -
20/01:00am - - - - - SSW 20 30 11 16 - - -
20/12:30am - - - - - SSW 22 33 12 18 - - -
20/12:00am - - - - - SSW 20 28 11 15 - - -
 
Date/Time
EDT
Temp
°C
App
Temp
°C
Dew
Point
°C
Rel
Hum
%
Delta-T
°C
Wind Press
QNH
hPa
Press
MSL
hPa
Rain since
9am
mm
Dir  Spd
km/h
Gust
km/h
Spd
kts
Gust
kts
19/11:30pm - - - - - SSW 20 30 11 16 - - -
19/11:00pm - - - - - SSW 22 32 12 17 - - -
19/10:30pm - - - - - SSW 22 32 12 17 - - -
19/10:00pm - - - - - SSW 22 33 12 18 - - -
19/09:30pm - - - - - SSW 24 33 13 18 - - -
19/09:00pm - - - - - SSW 28 39 15 21 - - -
19/08:30pm - - - - - SSW 28 37 15 20 - - -
19/08:00pm - - - - - SSW 26 37 14 20 - - -
19/07:30pm - - - - - SSW 32 43 17 23 - - -
19/07:00pm - - - - - SSW 28 39 15 21 - - -
19/06:30pm - - - - - SSW 33 43 18 23 - - -
19/06:00pm - - - - - SSW 32 43 17 23 - - -
19/05:30pm - - - - - SSW 32 44 17 24 - - -
19/05:00pm - - - - - S 35 48 19 26 - - -
19/04:30pm - - - - - S 33 50 18 27 - - -
19/04:00pm - - - - - S 33 44 18 24 - - -
19/03:30pm - - - - - S 35 50 19 27 - - -
19/03:00pm - - - - - S 33 46 18 25 - - -
19/02:30pm - - - - - S 35 50 19 27 - - -
19/02:00pm - - - - - S 37 48 20 26 - - -
19/01:30pm - - - - - S 35 50 19 27 - - -
19/01:00pm - - - - - S 37 46 20 25 - - -
19/12:30pm - - - - - S 35 48 19 26 - - -
19/12:00pm - - - - - S 33 46 18 25 - - -
19/11:30am - - - - - S 32 41 17 22 - - -
19/11:00am - - - - - SSW 30 43 16 23 - - -
19/10:30am - - - - - SSW 28 37 15 20 - - -
19/10:00am - - - - - S 17 28 9 15 - - -
19/09:30am - - - - - SW 11 15 6 8 - - -
19/09:00am - - - - - NNW 7 15 4 8 - - -
19/08:30am - - - - - N 13 20 7 11 - - -
19/08:00am - - - - - N 22 33 12 18 - - -
19/07:30am - - - - - N 24 39 13 21 - - -
19/07:00am - - - - - N 24 35 13 19 - - -
19/06:30am - - - - - N 24 37 13 20 - - -
19/06:00am - - - - - N 20 30 11 16 - - -
19/05:30am - - - - - NNE 22 32 12 17 - - -

Other formats

Comma delimited format used in spreadsheet applications
http://www.bom.gov.au/fwo/IDN60801/IDN60801.94780.axf

JavaScript Object Notation format (JSON) in row-major order
http://www.bom.gov.au/fwo/IDN60801/IDN60801.94780.json

Data quality

Most of these data are generated automatically and are frequently updated. Quality checks on data are not normally performed. It is possible for incorrect values to appear. Refer to information at About Latest Weather Observations and please check the disclaimer before using these data.